sensor_id;sensor_type;location;lat;lon;timestamp;pressure;altitude;pressure_sealevel;temperature;humidity
10712;BME280;5407;51.234;6.804;2023-02-23T00:00:53;100725.63;;;24.33;39.28
10712;BME280;5407;51.234;6.804;2023-02-23T00:03:20;100727.16;;;24.34;39.40
10712;BME280;5407;51.234;6.804;2023-02-23T00:05:46;100729.91;;;24.34;39.16
10712;BME280;5407;51.234;6.804;2023-02-23T00:08:13;100727.59;;;24.33;39.16
10712;BME280;5407;51.234;6.804;2023-02-23T00:10:40;100732.34;;;24.32;39.27
10712;BME280;5407;51.234;6.804;2023-02-23T00:13:09;100727.25;;;24.31;39.25
10712;BME280;5407;51.234;6.804;2023-02-23T00:15:36;100723.47;;;24.25;39.52
10712;BME280;5407;51.234;6.804;2023-02-23T00:18:05;100718.38;;;24.23;39.30
10712;BME280;5407;51.234;6.804;2023-02-23T00:20:31;100716.41;;;24.24;39.23
10712;BME280;5407;51.234;6.804;2023-02-23T00:22:59;100710.13;;;24.23;39.24
10712;BME280;5407;51.234;6.804;2023-02-23T00:25:25;100714.44;;;24.24;39.34
10712;BME280;5407;51.234;6.804;2023-02-23T00:27:55;100716.41;;;24.24;39.39
10712;BME280;5407;51.234;6.804;2023-02-23T00:30:22;100715.63;;;24.23;39.52
10712;BME280;5407;51.234;6.804;2023-02-23T00:32:50;100717.19;;;24.24;39.27
10712;BME280;5407;51.234;6.804;2023-02-23T00:35:19;100717.19;;;24.24;39.42
10712;BME280;5407;51.234;6.804;2023-02-23T00:37:47;100708.56;;;24.22;39.53
10712;BME280;5407;51.234;6.804;2023-02-23T00:40:15;100712.88;;;24.23;39.53
10712;BME280;5407;51.234;6.804;2023-02-23T00:42:43;100722.00;;;24.20;39.38
10712;BME280;5407;51.234;6.804;2023-02-23T00:45:11;100707.03;;;24.21;39.45
10712;BME280;5407;51.234;6.804;2023-02-23T00:47:39;100714.09;;;24.22;39.61
10712;BME280;5407;51.234;6.804;2023-02-23T00:50:09;100718.84;;;24.22;39.57
10712;BME280;5407;51.234;6.804;2023-02-23T00:52:40;100711.78;;;24.21;39.48
10712;BME280;5407;51.234;6.804;2023-02-23T00:55:09;100714.88;;;24.23;39.50
10712;BME280;5407;51.234;6.804;2023-02-23T00:57:38;100715.63;;;24.23;39.56
10712;BME280;5407;51.234;6.804;2023-02-23T01:00:07;100712.53;;;24.21;39.64
10712;BME280;5407;51.234;6.804;2023-02-23T01:02:45;100715.63;;;24.23;39.69
10712;BME280;5407;51.234;6.804;2023-02-23T01:05:12;100712.53;;;24.21;39.67
10712;BME280;5407;51.234;6.804;2023-02-23T01:07:40;100709.78;;;24.21;39.53
10712;BME280;5407;51.234;6.804;2023-02-23T01:10:11;100716.09;;;24.22;39.40
10712;BME280;5407;51.234;6.804;2023-02-23T01:12:47;100710.13;;;24.23;39.57
10712;BME280;5407;51.234;6.804;2023-02-23T01:15:15;100708.56;;;24.22;39.41
10712;BME280;5407;51.234;6.804;2023-02-23T01:17:42;100710.13;;;24.23;39.56
10712;BME280;5407;51.234;6.804;2023-02-23T01:20:11;100707.38;;;24.23;39.67
10712;BME280;5407;51.234;6.804;2023-02-23T01:22:44;100707.38;;;24.23;39.65
10712;BME280;5407;51.234;6.804;2023-02-23T01:25:12;100712.53;;;24.21;39.56
10712;BME280;5407;51.234;6.804;2023-02-23T01:27:39;100709.34;;;24.23;39.71
10712;BME280;5407;51.234;6.804;2023-02-23T01:30:10;100715.63;;;24.23;39.59
10712;BME280;5407;51.234;6.804;2023-02-23T01:32:38;100711.66;;;24.24;39.52
10712;BME280;5407;51.234;6.804;2023-02-23T01:35:07;100712.88;;;24.23;39.58
10712;BME280;5407;51.234;6.804;2023-02-23T01:37:34;100708.56;;;24.22;39.50
10712;BME280;5407;51.234;6.804;2023-02-23T01:40:05;100710.13;;;24.23;39.54
10712;BME280;5407;51.234;6.804;2023-02-23T01:42:38;100711.66;;;24.24;39.61
10712;BME280;5407;51.234;6.804;2023-02-23T01:45:23;100704.53;;;24.27;39.55
10712;BME280;5407;51.234;6.804;2023-02-23T01:47:52;100702.97;;;24.26;39.57
10712;BME280;5407;51.234;6.804;2023-02-23T01:50:20;100712.00;;;24.26;39.50
10712;BME280;5407;51.234;6.804;2023-02-23T01:52:49;100709.25;;;24.26;39.61
10712;BME280;5407;51.234;6.804;2023-02-23T01:55:21;100700.97;;;24.26;39.47
10712;BME280;5407;51.234;6.804;2023-02-23T01:57:53;100704.53;;;24.27;39.38
10712;BME280;5407;51.234;6.804;2023-02-23T02:00:22;100705.28;;;24.27;39.38
10712;BME280;5407;51.234;6.804;2023-02-23T02:02:51;100711.59;;;24.28;39.41
10712;BME280;5407;51.234;6.804;2023-02-23T02:05:19;100706.06;;;24.28;39.63
10712;BME280;5407;51.234;6.804;2023-02-23T02:07:49;100707.63;;;24.29;39.56
10712;BME280;5407;51.234;6.804;2023-02-23T02:10:25;100703.31;;;24.28;39.61
10712;BME280;5407;51.234;6.804;2023-02-23T02:13:06;100703.75;;;24.26;39.75
10712;BME280;5407;51.234;6.804;2023-02-23T02:15:39;100706.50;;;24.26;39.72
10712;BME280;5407;51.234;6.804;2023-02-23T02:18:16;100706.50;;;24.26;39.78
10712;BME280;5407;51.234;6.804;2023-02-23T02:26:56;100707.69;;;24.25;39.56
10712;BME280;5407;51.234;6.804;2023-02-23T02:32:53;100706.50;;;24.26;39.88
10712;BME280;5407;51.234;6.804;2023-02-23T02:35:40;100704.59;;;24.23;39.81
10712;BME280;5407;51.234;6.804;2023-02-23T02:38:18;100699.88;;;24.24;39.80
10712;BME280;5407;51.234;6.804;2023-02-23T02:40:52;100699.09;;;24.23;39.73
10712;BME280;5407;51.234;6.804;2023-02-23T02:43:30;100704.59;;;24.23;39.57
10712;BME280;5407;51.234;6.804;2023-02-23T02:46:04;100700.63;;;24.24;39.66
10712;BME280;5407;51.234;6.804;2023-02-23T02:48:39;100700.63;;;24.24;39.54
10712;BME280;5407;51.234;6.804;2023-02-23T02:51:13;100704.19;;;24.25;39.69
10712;BME280;5407;51.234;6.804;2023-02-23T02:53:50;100700.63;;;24.24;39.81
10712;BME280;5407;51.234;6.804;2023-02-23T02:56:24;100697.88;;;24.24;39.63
10712;BME280;5407;51.234;6.804;2023-02-23T02:58:53;100698.22;;;24.26;39.78
10712;BME280;5407;51.234;6.804;2023-02-23T03:01:21;100700.63;;;24.24;39.85
10712;BME280;5407;51.234;6.804;2023-02-23T03:04:20;100696.69;;;24.25;39.69
10712;BME280;5407;51.234;6.804;2023-02-23T03:07:09;100693.91;;;24.25;39.76
10712;BME280;5407;51.234;6.804;2023-02-23T03:10:07;100691.16;;;24.25;39.61
10712;BME280;5407;51.234;6.804;2023-02-23T03:12:56;100697.88;;;24.24;39.64
10712;BME280;5407;51.234;6.804;2023-02-23T03:15:53;100691.16;;;24.25;39.77
10712;BME280;5407;51.234;6.804;2023-02-23T03:18:54;100695.13;;;24.24;39.68
10712;BME280;5407;51.234;6.804;2023-02-23T03:21:50;100704.59;;;24.23;39.67
10712;BME280;5407;51.234;6.804;2023-02-23T03:24:41;100698.34;;;24.23;39.69
10712;BME280;5407;51.234;6.804;2023-02-23T03:27:44;100701.84;;;24.23;39.53
10712;BME280;5407;51.234;6.804;2023-02-23T03:30:42;100695.22;;;24.21;39.74
10712;BME280;5407;51.234;6.804;2023-02-23T03:33:33;100700.75;;;24.21;39.58
10712;BME280;5407;51.234;6.804;2023-02-23T03:36:24;100704.72;;;24.20;39.57
10712;BME280;5407;51.234;6.804;2023-02-23T03:39:16;100705.47;;;24.20;39.58
10712;BME280;5407;51.234;6.804;2023-02-23T03:42:06;100704.72;;;24.20;39.70
10712;BME280;5407;51.234;6.804;2023-02-23T03:44:56;100705.47;;;24.20;39.71
10712;BME280;5407;51.234;6.804;2023-02-23T03:47:42;100710.97;;;24.20;39.63
10712;BME280;5407;51.234;6.804;2023-02-23T03:50:33;100708.69;;;24.19;39.69
10712;BME280;5407;51.234;6.804;2023-02-23T03:53:26;100714.59;;;24.17;39.45
10712;BME280;5407;51.234;6.804;2023-02-23T03:56:12;100719.69;;;24.19;39.58
10712;BME280;5407;51.234;6.804;2023-02-23T03:59:00;100712.63;;;24.18;39.75
10712;BME280;5407;51.234;6.804;2023-02-23T04:01:50;100707.53;;;24.16;39.62
10712;BME280;5407;51.234;6.804;2023-02-23T04:04:38;100713.41;;;24.18;39.73
10712;BME280;5407;51.234;6.804;2023-02-23T04:07:24;100711.84;;;24.17;39.75
10712;BME280;5407;51.234;6.804;2023-02-23T04:10:09;100714.94;;;24.19;39.65
10712;BME280;5407;51.234;6.804;2023-02-23T04:12:58;100715.63;;;24.23;39.58
10712;BME280;5407;51.234;6.804;2023-02-23T04:15:46;100717.97;;;24.25;39.56
10712;BME280;5407;51.234;6.804;2023-02-23T04:18:16;100718.38;;;24.23;39.61
10712;BME280;5407;51.234;6.804;2023-02-23T04:20:44;100719.19;;;24.24;39.43
10712;BME280;5407;51.234;6.804;2023-02-23T04:23:11;100722.69;;;24.24;39.50
10712;BME280;5407;51.234;6.804;2023-02-23T04:25:38;100725.78;;;24.26;39.39
10712;BME280;5407;51.234;6.804;2023-02-23T04:28:05;100724.25;;;24.25;39.46
10712;BME280;5407;51.234;6.804;2023-02-23T04:30:31;100729.00;;;24.25;39.57
10712;BME280;5407;51.234;6.804;2023-02-23T04:32:58;100723.47;;;24.25;39.42
10712;BME280;5407;51.234;6.804;2023-02-23T04:35:27;100730.63;;;24.22;39.56
10712;BME280;5407;51.234;6.804;2023-02-23T04:37:56;100731.41;;;24.23;39.63
10712;BME280;5407;51.234;6.804;2023-02-23T04:40:23;100730.97;;;24.24;39.57
10712;BME280;5407;51.234;6.804;2023-02-23T04:42:51;100726.66;;;24.23;39.64
10712;BME280;5407;51.234;6.804;2023-02-23T04:45:18;100721.16;;;24.23;39.57
10712;BME280;5407;51.234;6.804;2023-02-23T04:47:45;100732.19;;;24.23;39.59
10712;BME280;5407;51.234;6.804;2023-02-23T04:50:12;100722.34;;;24.22;39.71
10712;BME280;5407;51.234;6.804;2023-02-23T04:52:41;100722.81;;;24.21;39.66
10712;BME280;5407;51.234;6.804;2023-02-23T04:55:14;100725.13;;;24.22;39.58
10712;BME280;5407;51.234;6.804;2023-02-23T04:57:42;100725.56;;;24.21;39.50
10712;BME280;5407;51.234;6.804;2023-02-23T05:00:10;100733.03;;;24.20;39.78
10712;BME280;5407;51.234;6.804;2023-02-23T05:02:37;100733.38;;;24.22;39.60
10712;BME280;5407;51.234;6.804;2023-02-23T05:05:05;100727.44;;;24.24;39.73
10712;BME280;5407;51.234;6.804;2023-02-23T05:07:33;100733.72;;;24.24;39.58
10712;BME280;5407;51.234;6.804;2023-02-23T05:10:02;100728.22;;;24.24;39.59
10712;BME280;5407;51.234;6.804;2023-02-23T05:12:29;100731.75;;;24.25;39.55
10712;BME280;5407;51.234;6.804;2023-02-23T05:14:57;100736.81;;;24.26;39.69
10712;BME280;5407;51.234;6.804;2023-02-23T05:17:23;100739.16;;;24.28;39.61
10712;BME280;5407;51.234;6.804;2023-02-23T05:19:50;100743.88;;;24.27;39.76
10712;BME280;5407;51.234;6.804;2023-02-23T05:22:17;100730.44;;;24.29;39.87
10712;BME280;5407;51.234;6.804;2023-02-23T05:24:44;100738.03;;;24.25;39.78
10712;BME280;5407;51.234;6.804;2023-02-23T05:27:13;100742.34;;;24.26;40.15
10712;BME280;5407;51.234;6.804;2023-02-23T05:29:42;100742.34;;;24.26;39.95
10712;BME280;5407;51.234;6.804;2023-02-23T05:32:08;100738.47;;;24.24;39.83
10712;BME280;5407;51.234;6.804;2023-02-23T05:34:35;100738.56;;;24.20;40.04
10712;BME280;5407;51.234;6.804;2023-02-23T05:37:04;100735.44;;;24.18;40.20
10712;BME280;5407;51.234;6.804;2023-02-23T05:39:31;100738.22;;;24.18;39.90
10712;BME280;5407;51.234;6.804;2023-02-23T05:41:58;100740.97;;;24.18;40.01
10712;BME280;5407;51.234;6.804;2023-02-23T05:44:26;100744.16;;;24.17;40.07
10712;BME280;5407;51.234;6.804;2023-02-23T05:46:53;100739.41;;;24.17;40.01
10712;BME280;5407;51.234;6.804;2023-02-23T05:49:20;100740.22;;;24.18;39.94
10712;BME280;5407;51.234;6.804;2023-02-23T05:51:47;100739.41;;;24.17;40.02
10712;BME280;5407;51.234;6.804;2023-02-23T05:54:14;100742.50;;;24.19;40.13
10712;BME280;5407;51.234;6.804;2023-02-23T05:56:41;100749.56;;;24.20;39.83
10712;BME280;5407;51.234;6.804;2023-02-23T05:59:08;100744.06;;;24.20;40.02
10712;BME280;5407;51.234;6.804;2023-02-23T06:01:36;100746.41;;;24.22;39.88
10712;BME280;5407;51.234;6.804;2023-02-23T06:04:04;100745.63;;;24.21;40.06
10712;BME280;5407;51.234;6.804;2023-02-23T06:06:30;100748.38;;;24.21;39.84
10712;BME280;5407;51.234;6.804;2023-02-23T06:08:57;100749.50;;;24.24;39.98
10712;BME280;5407;51.234;6.804;2023-02-23T06:11:24;100751.81;;;24.25;39.89
10712;BME280;5407;51.234;6.804;2023-02-23T06:13:51;100758.81;;;24.30;39.52
10712;BME280;5407;51.234;6.804;2023-02-23T06:16:18;100753.63;;;24.32;39.68
10712;BME280;5407;51.234;6.804;2023-02-23T06:18:46;100758.69;;;24.33;39.63
10712;BME280;5407;51.234;6.804;2023-02-23T06:21:13;100763.47;;;24.33;39.46
10712;BME280;5407;51.234;6.804;2023-02-23T06:23:40;100761.03;;;24.35;39.44
10712;BME280;5407;51.234;6.804;2023-02-23T06:26:07;100765.00;;;24.34;39.39
10712;BME280;5407;51.234;6.804;2023-02-23T06:28:34;100769.31;;;24.35;39.45
10712;BME280;5407;51.234;6.804;2023-02-23T06:31:01;100766.13;;;24.36;39.38
10712;BME280;5407;51.234;6.804;2023-02-23T06:33:28;100774.41;;;24.36;39.46
10712;BME280;5407;51.234;6.804;2023-02-23T06:35:56;100774.41;;;24.36;39.30
10712;BME280;5407;51.234;6.804;2023-02-23T06:38:23;100768.53;;;24.34;39.31
10712;BME280;5407;51.234;6.804;2023-02-23T06:40:50;100777.59;;;24.35;39.55
10712;BME280;5407;51.234;6.804;2023-02-23T06:43:17;100775.59;;;24.35;39.50
10712;BME280;5407;51.234;6.804;2023-02-23T06:45:45;100782.31;;;24.34;39.41
10712;BME280;5407;51.234;6.804;2023-02-23T06:48:12;100785.06;;;24.34;39.48
10712;BME280;5407;51.234;6.804;2023-02-23T06:50:39;100785.50;;;24.33;39.44
10712;BME280;5407;51.234;6.804;2023-02-23T06:53:07;100786.28;;;24.33;39.40
10712;BME280;5407;51.234;6.804;2023-02-23T06:55:34;100796.09;;;24.34;39.63
10712;BME280;5407;51.234;6.804;2023-02-23T06:58:01;100796.09;;;24.34;39.51
10712;BME280;5407;51.234;6.804;2023-02-23T07:00:29;100798.84;;;24.34;39.31
10712;BME280;5407;51.234;6.804;2023-02-23T07:02:56;100800.50;;;24.32;39.51
10712;BME280;5407;51.234;6.804;2023-02-23T07:05:24;100802.06;;;24.33;39.63
10712;BME280;5407;51.234;6.804;2023-02-23T07:07:51;100807.56;;;24.33;39.44
10712;BME280;5407;51.234;6.804;2023-02-23T07:10:19;100806.78;;;24.32;39.64
10712;BME280;5407;51.234;6.804;2023-02-23T07:12:46;100817.81;;;24.32;39.42
10712;BME280;5407;51.234;6.804;2023-02-23T07:15:13;100807.56;;;24.33;39.59
10712;BME280;5407;51.234;6.804;2023-02-23T07:17:42;100819.03;;;24.31;39.67
10712;BME280;5407;51.234;6.804;2023-02-23T07:20:13;100817.81;;;24.32;39.57
10712;BME280;5407;51.234;6.804;2023-02-23T07:22:40;100820.56;;;24.32;39.43
10712;BME280;5407;51.234;6.804;2023-02-23T07:25:08;100821.78;;;24.31;39.53
10712;BME280;5407;51.234;6.804;2023-02-23T07:27:36;100819.03;;;24.31;39.40
10712;BME280;5407;51.234;6.804;2023-02-23T07:30:04;100821.78;;;24.31;39.54
10712;BME280;5407;51.234;6.804;2023-02-23T07:32:31;100827.28;;;24.31;39.48
10712;BME280;5407;51.234;6.804;2023-02-23T07:34:57;100831.25;;;24.30;39.36
10712;BME280;5407;51.234;6.804;2023-02-23T07:37:24;100831.25;;;24.30;39.56
10712;BME280;5407;51.234;6.804;2023-02-23T07:39:51;100834.00;;;24.30;39.37
10712;BME280;5407;51.234;6.804;2023-02-23T07:42:18;100838.41;;;24.28;39.58
10712;BME280;5407;51.234;6.804;2023-02-23T07:44:46;100838.84;;;24.26;39.50
10712;BME280;5407;51.234;6.804;2023-02-23T07:47:13;100841.59;;;24.26;39.59
10712;BME280;5407;51.234;6.804;2023-02-23T07:49:40;100841.59;;;24.26;39.29
10712;BME280;5407;51.234;6.804;2023-02-23T07:52:07;100844.00;;;24.24;39.62
10712;BME280;5407;51.234;6.804;2023-02-23T07:54:34;100841.59;;;24.26;39.70
10712;BME280;5407;51.234;6.804;2023-02-23T07:57:00;100847.09;;;24.26;39.64
10712;BME280;5407;51.234;6.804;2023-02-23T07:59:27;100848.66;;;24.27;39.84
10712;BME280;5407;51.234;6.804;2023-02-23T08:01:56;100847.97;;;24.23;39.83
10712;BME280;5407;51.234;6.804;2023-02-23T08:04:22;100852.72;;;24.23;39.80
10712;BME280;5407;51.234;6.804;2023-02-23T08:06:49;100848.81;;;24.20;39.78
10712;BME280;5407;51.234;6.804;2023-02-23T08:09:16;100857.09;;;24.20;39.82
10712;BME280;5407;51.234;6.804;2023-02-23T08:11:43;100854.78;;;24.19;39.87
10712;BME280;5407;51.234;6.804;2023-02-23T08:14:10;100856.00;;;24.18;39.97
10712;BME280;5407;51.234;6.804;2023-02-23T08:16:37;100852.44;;;24.17;39.85
10712;BME280;5407;51.234;6.804;2023-02-23T08:19:05;100855.19;;;24.17;40.01
10712;BME280;5407;51.234;6.804;2023-02-23T08:21:32;100858.75;;;24.18;40.07
10712;BME280;5407;51.234;6.804;2023-02-23T08:23:59;100865.47;;;24.17;39.90
10712;BME280;5407;51.234;6.804;2023-02-23T08:26:26;100859.16;;;24.16;40.03
10712;BME280;5407;51.234;6.804;2023-02-23T08:28:53;100866.22;;;24.17;40.06
10712;BME280;5407;51.234;6.804;2023-02-23T08:31:21;100868.97;;;24.17;40.18
10712;BME280;5407;51.234;6.804;2023-02-23T08:33:48;100874.50;;;24.17;40.17
10712;BME280;5407;51.234;6.804;2023-02-23T08:36:17;100881.22;;;24.16;39.98
10712;BME280;5407;51.234;6.804;2023-02-23T08:38:45;100880.47;;;24.16;40.17
10712;BME280;5407;51.234;6.804;2023-02-23T08:41:12;100884.75;;;24.17;40.04
10712;BME280;5407;51.234;6.804;2023-02-23T08:43:39;100880.00;;;24.17;40.20
10712;BME280;5407;51.234;6.804;2023-02-23T08:46:06;100887.06;;;24.18;40.27
10712;BME280;5407;51.234;6.804;2023-02-23T08:48:34;100889.84;;;24.18;40.33
10712;BME280;5407;51.234;6.804;2023-02-23T08:51:01;100892.19;;;24.20;40.22
10712;BME280;5407;51.234;6.804;2023-02-23T08:53:29;100892.94;;;24.20;40.43
10712;BME280;5407;51.234;6.804;2023-02-23T08:55:57;100894.16;;;24.19;40.44
10712;BME280;5407;51.234;6.804;2023-02-23T08:58:25;100893.38;;;24.19;40.36
10712;BME280;5407;51.234;6.804;2023-02-23T09:00:52;100895.34;;;24.18;40.20
10712;BME280;5407;51.234;6.804;2023-02-23T09:03:19;100891.38;;;24.19;40.33
10712;BME280;5407;51.234;6.804;2023-02-23T09:05:46;100886.66;;;24.20;40.21
10712;BME280;5407;51.234;6.804;2023-02-23T09:08:14;100895.28;;;24.22;40.34
10712;BME280;5407;51.234;6.804;2023-02-23T09:10:42;100892.09;;;24.23;40.18
10712;BME280;5407;51.234;6.804;2023-02-23T09:13:10;100902.25;;;24.26;40.27
10712;BME280;5407;51.234;6.804;2023-02-23T09:15:37;100900.69;;;24.25;40.04
10712;BME280;5407;51.234;6.804;2023-02-23T09:18:05;100902.25;;;24.26;40.32
10712;BME280;5407;51.234;6.804;2023-02-23T09:20:32;100905.81;;;24.27;40.23
10712;BME280;5407;51.234;6.804;2023-02-23T09:22:59;100896.31;;;24.28;40.17
10712;BME280;5407;51.234;6.804;2023-02-23T09:25:26;100906.16;;;24.29;39.99
10712;BME280;5407;51.234;6.804;2023-02-23T09:27:55;100908.13;;;24.28;39.99
10712;BME280;5407;51.234;6.804;2023-02-23T09:30:25;100904.94;;;24.30;39.85
10712;BME280;5407;51.234;6.804;2023-02-23T09:32:54;100906.16;;;24.29;40.04
10712;BME280;5407;51.234;6.804;2023-02-23T09:35:23;100901.41;;;24.29;39.97
10712;BME280;5407;51.234;6.804;2023-02-23T09:37:51;100908.47;;;24.30;39.96
10712;BME280;5407;51.234;6.804;2023-02-23T09:40:21;100909.25;;;24.31;40.00
10712;BME280;5407;51.234;6.804;2023-02-23T09:42:58;100919.50;;;24.30;40.07
10712;BME280;5407;51.234;6.804;2023-02-23T09:45:35;100927.75;;;24.30;40.01
10712;BME280;5407;51.234;6.804;2023-02-23T09:48:11;100925.00;;;24.30;40.12
10712;BME280;5407;51.234;6.804;2023-02-23T09:50:43;100930.53;;;24.30;40.36
10712;BME280;5407;51.234;6.804;2023-02-23T09:53:26;100932.88;;;24.32;40.08
10712;BME280;5407;51.234;6.804;2023-02-23T09:55:56;100926.56;;;24.31;40.24
10712;BME280;5407;51.234;6.804;2023-02-23T09:58:27;100936.38;;;24.32;40.13
10712;BME280;5407;51.234;6.804;2023-02-23T10:01:10;100937.19;;;24.33;40.36
10712;BME280;5407;51.234;6.804;2023-02-23T10:03:50;100943.09;;;24.31;40.12
10712;BME280;5407;51.234;6.804;2023-02-23T10:06:18;100944.66;;;24.32;40.20
10712;BME280;5407;51.234;6.804;2023-02-23T10:08:53;100946.66;;;24.32;40.32
10712;BME280;5407;51.234;6.804;2023-02-23T10:11:26;100947.84;;;24.31;40.37
10712;BME280;5407;51.234;6.804;2023-02-23T10:14:06;100952.59;;;24.30;40.23
10712;BME280;5407;51.234;6.804;2023-02-23T10:16:44;100947.84;;;24.31;40.10
10712;BME280;5407;51.234;6.804;2023-02-23T10:19:21;100951.81;;;24.30;40.31
10712;BME280;5407;51.234;6.804;2023-02-23T10:21:55;100959.31;;;24.29;40.30
10712;BME280;5407;51.234;6.804;2023-02-23T10:24:25;100962.06;;;24.29;40.26
10712;BME280;5407;51.234;6.804;2023-02-23T10:26:58;100969.13;;;24.30;40.02
10712;BME280;5407;51.234;6.804;2023-02-23T10:29:33;100972.69;;;24.31;40.21
10712;BME280;5407;51.234;6.804;2023-02-23T10:32:05;100973.03;;;24.33;40.00
10712;BME280;5407;51.234;6.804;2023-02-23T10:34:33;100976.19;;;24.31;40.11
10712;BME280;5407;51.234;6.804;2023-02-23T10:37:03;100972.22;;;24.32;40.06
10712;BME280;5407;51.234;6.804;2023-02-23T10:39:31;100975.00;;;24.32;40.00
10712;BME280;5407;51.234;6.804;2023-02-23T10:42:01;100976.53;;;24.33;39.92
10712;BME280;5407;51.234;6.804;2023-02-23T10:44:30;100978.53;;;24.33;39.98
10712;BME280;5407;51.234;6.804;2023-02-23T10:47:00;100978.53;;;24.33;39.99
10712;BME280;5407;51.234;6.804;2023-02-23T10:49:37;100984.06;;;24.33;40.03
10712;BME280;5407;51.234;6.804;2023-02-23T10:52:10;100973.38;;;24.35;40.06
10712;BME280;5407;51.234;6.804;2023-02-23T10:54:42;100977.28;;;24.37;40.26
10712;BME280;5407;51.234;6.804;2023-02-23T10:57:22;100982.50;;;24.32;40.28
10712;BME280;5407;51.234;6.804;2023-02-23T11:00:26;100976.53;;;24.33;40.36
10712;BME280;5407;51.234;6.804;2023-02-23T11:02:58;100980.84;;;24.34;40.46
10712;BME280;5407;51.234;6.804;2023-02-23T11:05:31;100982.06;;;24.33;40.38
10712;BME280;5407;51.234;6.804;2023-02-23T11:08:22;100979.31;;;24.33;40.41
10712;BME280;5407;51.234;6.804;2023-02-23T11:10:58;100981.72;;;24.31;40.45
10712;BME280;5407;51.234;6.804;2023-02-23T11:13:27;100975.00;;;24.32;40.43
10712;BME280;5407;51.234;6.804;2023-02-23T11:16:01;100982.50;;;24.32;40.43
10712;BME280;5407;51.234;6.804;2023-02-23T11:18:29;100980.94;;;24.31;40.55
10712;BME280;5407;51.234;6.804;2023-02-23T11:20:57;100980.16;;;24.30;40.59
10712;BME280;5407;51.234;6.804;2023-02-23T11:23:26;100984.47;;;24.31;40.37
10712;BME280;5407;51.234;6.804;2023-02-23T11:25:56;100982.16;;;24.30;40.62
10712;BME280;5407;51.234;6.804;2023-02-23T11:28:29;100984.13;;;24.29;40.49
10712;BME280;5407;51.234;6.804;2023-02-23T11:31:01;100983.72;;;24.31;40.69
10712;BME280;5407;51.234;6.804;2023-02-23T11:33:31;100985.25;;;24.32;40.52
10712;BME280;5407;51.234;6.804;2023-02-23T11:36:14;100977.00;;;24.32;40.41
10712;BME280;5407;51.234;6.804;2023-02-23T11:38:44;100971.47;;;24.32;40.61
10712;BME280;5407;51.234;6.804;2023-02-23T11:41:20;100964.41;;;24.31;40.71
10712;BME280;5407;51.234;6.804;2023-02-23T11:43:48;100963.19;;;24.32;40.80
10712;BME280;5407;51.234;6.804;2023-02-23T11:46:18;100963.97;;;24.32;40.87
10712;BME280;5407;51.234;6.804;2023-02-23T11:48:49;100962.00;;;24.33;40.87
10712;BME280;5407;51.234;6.804;2023-02-23T11:51:29;100973.78;;;24.33;40.78
10712;BME280;5407;51.234;6.804;2023-02-23T11:53:57;100969.81;;;24.34;40.98
10712;BME280;5407;51.234;6.804;2023-02-23T11:56:25;100978.09;;;24.34;41.31
10712;BME280;5407;51.234;6.804;2023-02-23T11:58:54;100964.31;;;24.34;41.21
10712;BME280;5407;51.234;6.804;2023-02-23T12:01:37;100969.81;;;24.34;41.24
10712;BME280;5407;51.234;6.804;2023-02-23T12:04:09;100964.31;;;24.34;41.23
10712;BME280;5407;51.234;6.804;2023-02-23T12:06:49;100967.44;;;24.36;41.32
10712;BME280;5407;51.234;6.804;2023-02-23T12:09:20;100973.72;;;24.37;41.15
10712;BME280;5407;51.234;6.804;2023-02-23T12:11:52;100970.19;;;24.36;41.23
10712;BME280;5407;51.234;6.804;2023-02-23T12:14:28;100966.25;;;24.37;41.22
10712;BME280;5407;51.234;6.804;2023-02-23T12:17:01;100970.56;;;24.38;41.22
10712;BME280;5407;51.234;6.804;2023-02-23T12:19:31;100962.28;;;24.38;41.27
10712;BME280;5407;51.234;6.804;2023-02-23T12:22:03;100973.66;;;24.40;41.20
10712;BME280;5407;51.234;6.804;2023-02-23T12:24:38;100966.59;;;24.39;41.08
10712;BME280;5407;51.234;6.804;2023-02-23T12:27:11;100965.03;;;24.38;41.12
10712;BME280;5407;51.234;6.804;2023-02-23T12:29:53;100966.59;;;24.39;41.12
10712;BME280;5407;51.234;6.804;2023-02-23T12:32:26;100959.53;;;24.38;40.91
10712;BME280;5407;51.234;6.804;2023-02-23T12:34:57;100972.09;;;24.39;40.98
10712;BME280;5407;51.234;6.804;2023-02-23T12:37:36;100969.34;;;24.39;41.05
10712;BME280;5407;51.234;6.804;2023-02-23T12:40:12;100977.63;;;24.39;41.06
10712;BME280;5407;51.234;6.804;2023-02-23T12:42:45;100976.06;;;24.38;40.77
10712;BME280;5407;51.234;6.804;2023-02-23T12:45:21;100965.78;;;24.39;40.99
10712;BME280;5407;51.234;6.804;2023-02-23T12:47:55;100964.25;;;24.38;41.01
10712;BME280;5407;51.234;6.804;2023-02-23T12:50:27;100960.28;;;24.39;40.91
10712;BME280;5407;51.234;6.804;2023-02-23T12:52:57;100967.78;;;24.38;40.92
10712;BME280;5407;51.234;6.804;2023-02-23T12:55:32;100964.25;;;24.38;40.89
10712;BME280;5407;51.234;6.804;2023-02-23T12:58:14;100967.00;;;24.38;40.72
10712;BME280;5407;51.234;6.804;2023-02-23T13:00:52;100970.56;;;24.38;40.91
10712;BME280;5407;51.234;6.804;2023-02-23T13:03:58;100969.00;;;24.37;40.95
10712;BME280;5407;51.234;6.804;2023-02-23T13:06:35;100972.59;;;24.34;41.19
10712;BME280;5407;51.234;6.804;2023-02-23T13:09:13;100972.22;;;24.32;41.06
10712;BME280;5407;51.234;6.804;2023-02-23T13:14:53;100961.19;;;24.32;41.00
10712;BME280;5407;51.234;6.804;2023-02-23T13:17:30;100965.97;;;24.32;40.83
10712;BME280;5407;51.234;6.804;2023-02-23T13:20:02;100970.69;;;24.31;41.17
10712;BME280;5407;51.234;6.804;2023-02-23T13:22:39;100974.63;;;24.30;40.84
10712;BME280;5407;51.234;6.804;2023-02-23T13:25:19;100971.88;;;24.30;41.12
10712;BME280;5407;51.234;6.804;2023-02-23T13:27:51;100973.88;;;24.30;41.06
10712;BME280;5407;51.234;6.804;2023-02-23T13:30:21;100971.13;;;24.30;41.15
10712;BME280;5407;51.234;6.804;2023-02-23T13:32:48;100973.09;;;24.29;41.05
10712;BME280;5407;51.234;6.804;2023-02-23T13:35:18;100969.97;;;24.27;41.29
10712;BME280;5407;51.234;6.804;2023-02-23T13:37:49;100971.53;;;24.28;41.03